Startpagina
METAR-TAF:

METAR-TAF

Vliegvelden :

Luchthaven Jakoetsk

Jakoetsk, Rusland

breedte: 62-01N, lengte: 129-43E, hoogte: 103 m

Actueel weer

Dit bericht is 25 minuten geleden gemaakt, om 18:30 UTC
Wind 2 kt uit het zuiden
Temperatuur -5°C
Vochtigheid 93%
Druk 1029 hPa
Zicht 10 km of meer
Verspreide wolken op 1100 ft
Geheel bewolkt op 1600 ft, Cumulonimbus.

METAR: UEEE 151830Z 17001MPS 9999 SCT011 OVC016CB M05/M06 Q1029 R23L/490050 NOSIG RMK QFE763

Tijdstip: 03:55 (18:55 UTC)

Verwachting

Dit bericht is 1 uur en het 55 minuten geleden gemaakt, om 17:00 UTC
Verwachting geldig van 15 om 18 UTC tot 16 om 24 UTC
Wind 6 kt uit het zuiden
Zicht 10 km of meer
Verspreide wolken op 1000 ft
Gebroken wolken op 1400 ft, Cumulonimbus.
Geheel bewolkt op 7000 ft
Tijdelijke
van 15 om 18 UTC tot 16 om 03 UTC
Zicht: 0300 m
op 300 ft
sneeuwbuien, onderkoelde mist

TAF: UEEE 151700Z 1518/1624 19003MPS 9999 SCT010 BKN014CB OVC070 TEMPO 1518/1603 0300 SHSN FZFG VV003

Waarnemingen en weersverwachtingen van meer dan 4000 vliegvelden (METAR en TAF).

De beschikbare stations zijn de gele en rode punten op de kaart.

Ga met uw muis naar het station om de naam te zien.

Klik dan om waarnemingen en weersverwachtingen te zien.

kaart wijzigen: klik op de groene knoppen met een zwart kruis om in te zoomen, op de groene knop met een streepje om uit te zoomen of op de groene pijlen voor aangrenzende kaarten.


METAR-TAF: